Terminal Aerodrome Forecast
Issued by NWS

Home | Current Version | Previous Version | Text Only | Print | Product List | Glossary On
Versions: 1 2 3 4 5 6 7 8 9 10 11 12 13 14 15 16 17 18 19 20
761
FTUS43 KSGF 172334
TAFJLN
TAF
KJLN 172334Z 1800/1824 VRB03KT P6SM SKC
     FM180500 13006KT P6SM SKC
     FM181300 15013G20KT P6SM SCT250
     FM181500 18020G25KT P6SM SCT250=

USA.gov is the U.S. government's official web portal to all federal, state and local government web resources and services.